Terminal Aerodrome Forecast
Issued by NWS

Current Version | Previous Version | Graphics & Text | Print | Product List | Glossary Off
Versions: 1 2 3 4 5 6 7 8 9 10 11 12 13 14 15 16 17 18 19 20 21 22 23 24 25 26 27 28 29 30 31 32 33 34 35 36 37 38

000
FTUS41 KRNK 281732
TAFLWB
TAF
KLWB 281732Z 2818/2918 VRB04KT P6SM SCT035
     FM290800 00000KT P6SM SCT060
      TEMPO 2909/2912 2SM BR
     FM291400 VRB03KT P6SM SCT035 BKN250=

USA.gov is the U.S. government's official web portal to all federal, state and local government web resources and services.